sensor_id;sensor_type;location;lat;lon;timestamp;temperature;humidity
49765;DHT22;35657;51.204;-4.130;2023-03-31T00:00:29;11.80;99.90
49765;DHT22;35657;51.204;-4.130;2023-03-31T00:02:56;11.80;99.90
49765;DHT22;35657;51.204;-4.130;2023-03-31T00:05:23;11.80;99.90
49765;DHT22;35657;51.204;-4.130;2023-03-31T00:07:56;11.80;99.90
49765;DHT22;35657;51.204;-4.130;2023-03-31T00:10:32;11.80;99.90
49765;DHT22;35657;51.204;-4.130;2023-03-31T00:12:59;11.80;99.90
49765;DHT22;35657;51.204;-4.130;2023-03-31T00:15:26;11.70;99.90
49765;DHT22;35657;51.204;-4.130;2023-03-31T00:17:52;11.70;99.90
49765;DHT22;35657;51.204;-4.130;2023-03-31T00:20:19;11.70;99.90
49765;DHT22;35657;51.204;-4.130;2023-03-31T00:22:45;11.70;99.90
49765;DHT22;35657;51.204;-4.130;2023-03-31T00:25:15;11.70;99.90
49765;DHT22;35657;51.204;-4.130;2023-03-31T00:27:45;11.70;99.90
49765;DHT22;35657;51.204;-4.130;2023-03-31T00:30:13;11.70;99.90
49765;DHT22;35657;51.204;-4.130;2023-03-31T00:32:38;11.70;99.90
49765;DHT22;35657;51.204;-4.130;2023-03-31T00:35:05;11.70;99.90
49765;DHT22;35657;51.204;-4.130;2023-03-31T00:37:31;11.70;99.90
49765;DHT22;35657;51.204;-4.130;2023-03-31T00:40:00;11.70;99.90
49765;DHT22;35657;51.204;-4.130;2023-03-31T00:42:26;11.70;99.90
49765;DHT22;35657;51.204;-4.130;2023-03-31T00:48:07;11.80;99.90
49765;DHT22;35657;51.204;-4.130;2023-03-31T00:50:39;11.80;99.90
49765;DHT22;35657;51.204;-4.130;2023-03-31T00:53:14;11.80;99.90
49765;DHT22;35657;51.204;-4.130;2023-03-31T00:55:49;11.80;99.90
49765;DHT22;35657;51.204;-4.130;2023-03-31T00:58:16;11.90;99.90
49765;DHT22;35657;51.204;-4.130;2023-03-31T01:00:47;11.90;99.90
49765;DHT22;35657;51.204;-4.130;2023-03-31T01:03:15;11.90;99.90
49765;DHT22;35657;51.204;-4.130;2023-03-31T01:05:46;11.90;99.90
49765;DHT22;35657;51.204;-4.130;2023-03-31T01:08:15;11.90;99.90
49765;DHT22;35657;51.204;-4.130;2023-03-31T01:10:45;11.80;99.90
49765;DHT22;35657;51.204;-4.130;2023-03-31T01:13:14;11.70;99.90
49765;DHT22;35657;51.204;-4.130;2023-03-31T01:15:41;11.70;99.90
49765;DHT22;35657;51.204;-4.130;2023-03-31T01:18:08;11.70;99.90
49765;DHT22;35657;51.204;-4.130;2023-03-31T01:26:34;11.70;99.90
49765;DHT22;35657;51.204;-4.130;2023-03-31T01:48:18;11.60;99.90
49765;DHT22;35657;51.204;-4.130;2023-03-31T01:50:57;11.50;99.90
49765;DHT22;35657;51.204;-4.130;2023-03-31T01:56:29;11.50;99.90
49765;DHT22;35657;51.204;-4.130;2023-03-31T01:59:07;11.50;99.90
49765;DHT22;35657;51.204;-4.130;2023-03-31T02:01:47;11.50;99.90
49765;DHT22;35657;51.204;-4.130;2023-03-31T02:04:22;11.50;99.90
49765;DHT22;35657;51.204;-4.130;2023-03-31T02:07:00;11.50;99.90
49765;DHT22;35657;51.204;-4.130;2023-03-31T02:09:31;11.50;99.90
49765;DHT22;35657;51.204;-4.130;2023-03-31T02:11:58;11.50;99.90
49765;DHT22;35657;51.204;-4.130;2023-03-31T02:14:27;11.50;99.90
49765;DHT22;35657;51.204;-4.130;2023-03-31T02:16:57;11.50;99.90
49765;DHT22;35657;51.204;-4.130;2023-03-31T02:19:31;11.50;99.90
49765;DHT22;35657;51.204;-4.130;2023-03-31T02:21:58;11.60;99.90
49765;DHT22;35657;51.204;-4.130;2023-03-31T02:24:25;11.60;99.90
49765;DHT22;35657;51.204;-4.130;2023-03-31T02:29:21;11.60;99.90
49765;DHT22;35657;51.204;-4.130;2023-03-31T02:34:26;11.70;99.90
49765;DHT22;35657;51.204;-4.130;2023-03-31T02:36:51;11.70;99.90
49765;DHT22;35657;51.204;-4.130;2023-03-31T02:39:22;11.70;99.90
49765;DHT22;35657;51.204;-4.130;2023-03-31T02:41:49;11.80;99.90
49765;DHT22;35657;51.204;-4.130;2023-03-31T02:44:16;11.70;99.90
49765;DHT22;35657;51.204;-4.130;2023-03-31T02:46:42;11.60;99.90
49765;DHT22;35657;51.204;-4.130;2023-03-31T02:49:09;11.60;99.90
49765;DHT22;35657;51.204;-4.130;2023-03-31T02:51:58;11.60;99.90
49765;DHT22;35657;51.204;-4.130;2023-03-31T03:03:05;11.50;99.90
49765;DHT22;35657;51.204;-4.130;2023-03-31T03:08:51;11.50;99.90
49765;DHT22;35657;51.204;-4.130;2023-03-31T03:16:25;11.50;99.90
49765;DHT22;35657;51.204;-4.130;2023-03-31T03:19:01;11.50;99.90
49765;DHT22;35657;51.204;-4.130;2023-03-31T03:21:28;11.50;99.90
49765;DHT22;35657;51.204;-4.130;2023-03-31T03:23:54;11.50;99.90
49765;DHT22;35657;51.204;-4.130;2023-03-31T03:26:20;11.50;99.90
49765;DHT22;35657;51.204;-4.130;2023-03-31T03:28:50;11.40;99.90
49765;DHT22;35657;51.204;-4.130;2023-03-31T03:31:16;11.40;99.90
49765;DHT22;35657;51.204;-4.130;2023-03-31T03:33:42;11.40;99.90
49765;DHT22;35657;51.204;-4.130;2023-03-31T03:36:08;11.40;99.90
49765;DHT22;35657;51.204;-4.130;2023-03-31T03:38:34;11.40;99.90
49765;DHT22;35657;51.204;-4.130;2023-03-31T03:41:01;11.40;99.90
49765;DHT22;35657;51.204;-4.130;2023-03-31T03:43:27;11.40;99.90
49765;DHT22;35657;51.204;-4.130;2023-03-31T03:45:53;11.40;99.90
49765;DHT22;35657;51.204;-4.130;2023-03-31T03:48:19;11.40;99.90
49765;DHT22;35657;51.204;-4.130;2023-03-31T03:50:45;11.40;99.90
49765;DHT22;35657;51.204;-4.130;2023-03-31T03:53:12;11.40;99.90
49765;DHT22;35657;51.204;-4.130;2023-03-31T03:55:37;11.50;99.90
49765;DHT22;35657;51.204;-4.130;2023-03-31T03:58:03;11.50;99.90
49765;DHT22;35657;51.204;-4.130;2023-03-31T04:00:29;11.60;99.90
49765;DHT22;35657;51.204;-4.130;2023-03-31T04:02:55;11.60;99.90
49765;DHT22;35657;51.204;-4.130;2023-03-31T04:05:21;11.70;99.90
49765;DHT22;35657;51.204;-4.130;2023-03-31T04:07:47;11.70;99.90
49765;DHT22;35657;51.204;-4.130;2023-03-31T04:10:13;11.70;99.90
49765;DHT22;35657;51.204;-4.130;2023-03-31T04:12:39;11.60;99.90
49765;DHT22;35657;51.204;-4.130;2023-03-31T04:15:06;11.60;99.90
49765;DHT22;35657;51.204;-4.130;2023-03-31T04:17:31;11.70;99.90
49765;DHT22;35657;51.204;-4.130;2023-03-31T04:20:06;11.60;99.90
49765;DHT22;35657;51.204;-4.130;2023-03-31T04:22:34;11.50;99.90
49765;DHT22;35657;51.204;-4.130;2023-03-31T04:25:05;11.50;99.90
49765;DHT22;35657;51.204;-4.130;2023-03-31T04:27:40;11.40;99.90
49765;DHT22;35657;51.204;-4.130;2023-03-31T04:30:13;11.40;99.90
49765;DHT22;35657;51.204;-4.130;2023-03-31T04:32:50;11.40;99.90
49765;DHT22;35657;51.204;-4.130;2023-03-31T04:35:18;11.40;99.90
49765;DHT22;35657;51.204;-4.130;2023-03-31T04:37:46;11.40;99.90
49765;DHT22;35657;51.204;-4.130;2023-03-31T04:40:12;11.40;99.90
49765;DHT22;35657;51.204;-4.130;2023-03-31T04:42:38;11.40;99.90
49765;DHT22;35657;51.204;-4.130;2023-03-31T04:45:04;11.40;99.90
49765;DHT22;35657;51.204;-4.130;2023-03-31T04:47:30;11.40;99.90
49765;DHT22;35657;51.204;-4.130;2023-03-31T04:49:55;11.40;99.90
49765;DHT22;35657;51.204;-4.130;2023-03-31T04:52:21;11.40;99.90
49765;DHT22;35657;51.204;-4.130;2023-03-31T04:54:47;11.40;99.90
49765;DHT22;35657;51.204;-4.130;2023-03-31T04:57:12;11.40;99.90
49765;DHT22;35657;51.204;-4.130;2023-03-31T04:59:38;11.40;99.90
49765;DHT22;35657;51.204;-4.130;2023-03-31T05:02:04;11.40;99.90
49765;DHT22;35657;51.204;-4.130;2023-03-31T05:04:29;11.40;99.90
49765;DHT22;35657;51.204;-4.130;2023-03-31T05:06:55;11.40;99.90
49765;DHT22;35657;51.204;-4.130;2023-03-31T05:09:21;11.40;99.90
49765;DHT22;35657;51.204;-4.130;2023-03-31T05:11:46;11.40;99.90
49765;DHT22;35657;51.204;-4.130;2023-03-31T05:14:12;11.30;99.90
49765;DHT22;35657;51.204;-4.130;2023-03-31T05:16:38;11.30;99.90
49765;DHT22;35657;51.204;-4.130;2023-03-31T05:19:03;11.30;99.90
49765;DHT22;35657;51.204;-4.130;2023-03-31T05:21:29;11.30;99.90
49765;DHT22;35657;51.204;-4.130;2023-03-31T05:23:56;11.30;99.90
49765;DHT22;35657;51.204;-4.130;2023-03-31T05:26:22;11.30;99.90
49765;DHT22;35657;51.204;-4.130;2023-03-31T05:28:50;11.30;99.90
49765;DHT22;35657;51.204;-4.130;2023-03-31T05:31:17;11.30;99.90
49765;DHT22;35657;51.204;-4.130;2023-03-31T05:33:43;11.40;99.90
49765;DHT22;35657;51.204;-4.130;2023-03-31T05:36:11;11.40;99.90
49765;DHT22;35657;51.204;-4.130;2023-03-31T05:38:38;11.30;99.90
49765;DHT22;35657;51.204;-4.130;2023-03-31T05:41:03;11.30;99.90
49765;DHT22;35657;51.204;-4.130;2023-03-31T05:43:30;11.40;99.90
49765;DHT22;35657;51.204;-4.130;2023-03-31T05:45:56;11.40;99.90
49765;DHT22;35657;51.204;-4.130;2023-03-31T05:48:22;11.30;99.90
49765;DHT22;35657;51.204;-4.130;2023-03-31T05:50:47;11.30;99.90
49765;DHT22;35657;51.204;-4.130;2023-03-31T05:53:13;11.30;99.90
49765;DHT22;35657;51.204;-4.130;2023-03-31T05:55:39;11.30;99.90
49765;DHT22;35657;51.204;-4.130;2023-03-31T05:58:05;11.30;99.90
49765;DHT22;35657;51.204;-4.130;2023-03-31T06:00:31;11.20;99.90
49765;DHT22;35657;51.204;-4.130;2023-03-31T06:02:57;11.20;99.90
49765;DHT22;35657;51.204;-4.130;2023-03-31T06:05:24;11.20;99.90
49765;DHT22;35657;51.204;-4.130;2023-03-31T06:07:51;11.20;99.90
49765;DHT22;35657;51.204;-4.130;2023-03-31T06:10:18;11.20;99.90
49765;DHT22;35657;51.204;-4.130;2023-03-31T06:12:43;11.20;99.90
49765;DHT22;35657;51.204;-4.130;2023-03-31T06:15:09;11.20;99.90
49765;DHT22;35657;51.204;-4.130;2023-03-31T06:17:35;11.20;99.90
49765;DHT22;35657;51.204;-4.130;2023-03-31T06:20:01;11.20;99.90
49765;DHT22;35657;51.204;-4.130;2023-03-31T06:22:26;11.20;99.90
49765;DHT22;35657;51.204;-4.130;2023-03-31T06:24:52;11.20;99.90
49765;DHT22;35657;51.204;-4.130;2023-03-31T06:27:18;11.20;99.90
49765;DHT22;35657;51.204;-4.130;2023-03-31T06:29:43;11.20;99.90
49765;DHT22;35657;51.204;-4.130;2023-03-31T06:32:09;11.30;99.90
49765;DHT22;35657;51.204;-4.130;2023-03-31T06:34:36;11.20;99.90
49765;DHT22;35657;51.204;-4.130;2023-03-31T06:37:01;11.20;99.90
49765;DHT22;35657;51.204;-4.130;2023-03-31T06:39:27;11.10;99.90
49765;DHT22;35657;51.204;-4.130;2023-03-31T06:41:53;11.20;99.90
49765;DHT22;35657;51.204;-4.130;2023-03-31T06:44:18;11.10;99.90
49765;DHT22;35657;51.204;-4.130;2023-03-31T06:46:47;11.10;99.90
49765;DHT22;35657;51.204;-4.130;2023-03-31T06:49:13;11.10;99.90
49765;DHT22;35657;51.204;-4.130;2023-03-31T06:51:39;11.10;99.90
49765;DHT22;35657;51.204;-4.130;2023-03-31T06:54:05;11.10;99.90
49765;DHT22;35657;51.204;-4.130;2023-03-31T06:56:31;11.10;99.90
49765;DHT22;35657;51.204;-4.130;2023-03-31T06:58:56;11.10;99.90
49765;DHT22;35657;51.204;-4.130;2023-03-31T07:01:22;11.10;99.90
49765;DHT22;35657;51.204;-4.130;2023-03-31T07:03:48;11.10;99.90
49765;DHT22;35657;51.204;-4.130;2023-03-31T07:06:14;11.10;99.90
49765;DHT22;35657;51.204;-4.130;2023-03-31T07:08:39;11.10;99.90
49765;DHT22;35657;51.204;-4.130;2023-03-31T07:11:05;11.10;99.90
49765;DHT22;35657;51.204;-4.130;2023-03-31T07:13:31;11.10;99.90
49765;DHT22;35657;51.204;-4.130;2023-03-31T07:15:57;11.10;99.90
49765;DHT22;35657;51.204;-4.130;2023-03-31T07:18:23;11.10;99.90
49765;DHT22;35657;51.204;-4.130;2023-03-31T07:20:56;11.10;99.90
49765;DHT22;35657;51.204;-4.130;2023-03-31T07:23:22;11.10;99.90
49765;DHT22;35657;51.204;-4.130;2023-03-31T07:25:48;11.10;99.90
49765;DHT22;35657;51.204;-4.130;2023-03-31T07:28:14;11.20;99.90
49765;DHT22;35657;51.204;-4.130;2023-03-31T07:30:40;11.10;99.90
49765;DHT22;35657;51.204;-4.130;2023-03-31T07:33:06;11.20;99.90
49765;DHT22;35657;51.204;-4.130;2023-03-31T07:35:32;11.20;99.90
49765;DHT22;35657;51.204;-4.130;2023-03-31T07:37:58;11.10;99.90
49765;DHT22;35657;51.204;-4.130;2023-03-31T07:40:26;11.10;99.90
49765;DHT22;35657;51.204;-4.130;2023-03-31T07:42:53;11.10;99.90
49765;DHT22;35657;51.204;-4.130;2023-03-31T07:45:20;11.10;99.90
49765;DHT22;35657;51.204;-4.130;2023-03-31T07:47:46;11.10;99.90
49765;DHT22;35657;51.204;-4.130;2023-03-31T07:52:47;11.10;99.90
49765;DHT22;35657;51.204;-4.130;2023-03-31T07:55:13;11.10;99.90
49765;DHT22;35657;51.204;-4.130;2023-03-31T07:57:39;11.10;99.90
49765;DHT22;35657;51.204;-4.130;2023-03-31T08:00:07;11.10;99.90
49765;DHT22;35657;51.204;-4.130;2023-03-31T08:02:35;11.10;99.90
49765;DHT22;35657;51.204;-4.130;2023-03-31T08:05:01;11.00;99.90
49765;DHT22;35657;51.204;-4.130;2023-03-31T08:07:26;11.10;99.90
49765;DHT22;35657;51.204;-4.130;2023-03-31T08:09:56;11.00;99.90
49765;DHT22;35657;51.204;-4.130;2023-03-31T08:15:25;11.00;99.90
49765;DHT22;35657;51.204;-4.130;2023-03-31T08:17:50;11.00;99.90
49765;DHT22;35657;51.204;-4.130;2023-03-31T08:20:16;11.00;99.90
49765;DHT22;35657;51.204;-4.130;2023-03-31T08:22:42;11.10;99.90
49765;DHT22;35657;51.204;-4.130;2023-03-31T08:25:08;11.10;99.90
49765;DHT22;35657;51.204;-4.130;2023-03-31T08:27:36;11.10;99.90
49765;DHT22;35657;51.204;-4.130;2023-03-31T08:30:04;11.00;99.90
49765;DHT22;35657;51.204;-4.130;2023-03-31T08:32:34;11.10;99.90
49765;DHT22;35657;51.204;-4.130;2023-03-31T08:35:00;11.00;99.90
49765;DHT22;35657;51.204;-4.130;2023-03-31T08:37:26;11.00;99.90
49765;DHT22;35657;51.204;-4.130;2023-03-31T08:39:53;11.10;99.90
49765;DHT22;35657;51.204;-4.130;2023-03-31T08:42:41;11.10;99.90
49765;DHT22;35657;51.204;-4.130;2023-03-31T08:45:34;11.10;99.90
49765;DHT22;35657;51.204;-4.130;2023-03-31T08:51:17;11.20;99.90
49765;DHT22;35657;51.204;-4.130;2023-03-31T08:53:56;11.20;99.90
49765;DHT22;35657;51.204;-4.130;2023-03-31T08:56:25;11.20;99.90
49765;DHT22;35657;51.204;-4.130;2023-03-31T08:58:52;11.20;99.90
49765;DHT22;35657;51.204;-4.130;2023-03-31T09:01:49;11.20;99.90
49765;DHT22;35657;51.204;-4.130;2023-03-31T09:16:19;11.10;99.90
49765;DHT22;35657;51.204;-4.130;2023-03-31T09:18:45;11.10;99.90
49765;DHT22;35657;51.204;-4.130;2023-03-31T09:21:32;11.10;99.90
49765;DHT22;35657;51.204;-4.130;2023-03-31T09:24:12;11.10;99.90
49765;DHT22;35657;51.204;-4.130;2023-03-31T09:26:47;11.00;99.90
49765;DHT22;35657;51.204;-4.130;2023-03-31T09:29:19;11.00;99.90
49765;DHT22;35657;51.204;-4.130;2023-03-31T09:31:46;11.00;99.90
49765;DHT22;35657;51.204;-4.130;2023-03-31T09:34:21;11.00;99.90
49765;DHT22;35657;51.204;-4.130;2023-03-31T09:36:48;11.00;99.90
49765;DHT22;35657;51.204;-4.130;2023-03-31T09:39:14;11.00;99.90
49765;DHT22;35657;51.204;-4.130;2023-03-31T09:41:49;10.90;99.90
49765;DHT22;35657;51.204;-4.130;2023-03-31T09:44:33;10.90;99.90
49765;DHT22;35657;51.204;-4.130;2023-03-31T09:47:01;10.90;99.90
49765;DHT22;35657;51.204;-4.130;2023-03-31T09:49:33;10.90;99.90
49765;DHT22;35657;51.204;-4.130;2023-03-31T09:52:11;11.00;99.90
49765;DHT22;35657;51.204;-4.130;2023-03-31T09:54:45;10.90;99.90
49765;DHT22;35657;51.204;-4.130;2023-03-31T09:57:30;10.90;99.90
49765;DHT22;35657;51.204;-4.130;2023-03-31T10:05:21;10.90;99.90
49765;DHT22;35657;51.204;-4.130;2023-03-31T10:07:49;10.90;99.90
49765;DHT22;35657;51.204;-4.130;2023-03-31T10:10:29;10.90;99.90
49765;DHT22;35657;51.204;-4.130;2023-03-31T10:12:55;10.90;99.90
49765;DHT22;35657;51.204;-4.130;2023-03-31T10:15:25;10.90;99.90
49765;DHT22;35657;51.204;-4.130;2023-03-31T10:17:51;10.90;99.90
49765;DHT22;35657;51.204;-4.130;2023-03-31T10:20:26;10.90;99.90
49765;DHT22;35657;51.204;-4.130;2023-03-31T10:22:54;10.90;99.90
49765;DHT22;35657;51.204;-4.130;2023-03-31T10:25:23;10.90;99.90
49765;DHT22;35657;51.204;-4.130;2023-03-31T10:27:53;11.00;99.90
49765;DHT22;35657;51.204;-4.130;2023-03-31T10:30:23;11.00;99.90
49765;DHT22;35657;51.204;-4.130;2023-03-31T10:32:49;10.90;99.90
49765;DHT22;35657;51.204;-4.130;2023-03-31T10:35:29;11.00;99.90
49765;DHT22;35657;51.204;-4.130;2023-03-31T10:38:01;10.90;99.90
49765;DHT22;35657;51.204;-4.130;2023-03-31T10:40:29;11.00;99.90
49765;DHT22;35657;51.204;-4.130;2023-03-31T10:43:08;10.90;99.90
49765;DHT22;35657;51.204;-4.130;2023-03-31T10:50:47;10.90;99.90
49765;DHT22;35657;51.204;-4.130;2023-03-31T10:53:14;10.80;99.90
49765;DHT22;35657;51.204;-4.130;2023-03-31T10:58:46;10.80;99.90
49765;DHT22;35657;51.204;-4.130;2023-03-31T11:06:26;10.80;99.90
49765;DHT22;35657;51.204;-4.130;2023-03-31T11:14:23;10.80;99.90
49765;DHT22;35657;51.204;-4.130;2023-03-31T11:17:04;10.70;99.90
49765;DHT22;35657;51.204;-4.130;2023-03-31T11:39:09;10.80;99.90
49765;DHT22;35657;51.204;-4.130;2023-03-31T11:41:51;10.70;99.90
49765;DHT22;35657;51.204;-4.130;2023-03-31T11:44:21;10.70;99.90
49765;DHT22;35657;51.204;-4.130;2023-03-31T11:46:56;10.80;99.90
49765;DHT22;35657;51.204;-4.130;2023-03-31T11:49:28;10.70;99.90
49765;DHT22;35657;51.204;-4.130;2023-03-31T11:51:59;10.70;99.90
49765;DHT22;35657;51.204;-4.130;2023-03-31T11:57:02;10.70;99.90
49765;DHT22;35657;51.204;-4.130;2023-03-31T11:59:29;10.70;99.90
49765;DHT22;35657;51.204;-4.130;2023-03-31T12:02:03;10.70;99.90
49765;DHT22;35657;51.204;-4.130;2023-03-31T12:04:48;10.80;99.90
49765;DHT22;35657;51.204;-4.130;2023-03-31T12:09:59;10.90;99.90
49765;DHT22;35657;51.204;-4.130;2023-03-31T12:12:32;10.90;99.90
49765;DHT22;35657;51.204;-4.130;2023-03-31T12:15:24;10.90;99.90
49765;DHT22;35657;51.204;-4.130;2023-03-31T12:18:24;10.80;99.90
49765;DHT22;35657;51.204;-4.130;2023-03-31T12:20:55;10.90;99.90
49765;DHT22;35657;51.204;-4.130;2023-03-31T12:23:26;10.90;99.90
49765;DHT22;35657;51.204;-4.130;2023-03-31T12:28:33;10.80;99.90
49765;DHT22;35657;51.204;-4.130;2023-03-31T12:31:02;10.70;99.90
49765;DHT22;35657;51.204;-4.130;2023-03-31T12:33:39;10.70;99.90
49765;DHT22;35657;51.204;-4.130;2023-03-31T12:36:36;10.70;99.90
49765;DHT22;35657;51.204;-4.130;2023-03-31T12:44:53;10.70;99.90
49765;DHT22;35657;51.204;-4.130;2023-03-31T12:55:32;10.70;99.90
49765;DHT22;35657;51.204;-4.130;2023-03-31T13:06:04;10.70;99.90
49765;DHT22;35657;51.204;-4.130;2023-03-31T13:08:50;10.60;99.90
49765;DHT22;35657;51.204;-4.130;2023-03-31T13:11:17;10.70;99.90
49765;DHT22;35657;51.204;-4.130;2023-03-31T13:14:12;10.70;99.90
49765;DHT22;35657;51.204;-4.130;2023-03-31T13:16:38;10.70;99.90
49765;DHT22;35657;51.204;-4.130;2023-03-31T13:19:05;10.70;99.90
49765;DHT22;35657;51.204;-4.130;2023-03-31T13:21:30;10.70;99.90
49765;DHT22;35657;51.204;-4.130;2023-03-31T13:24:24;10.70;99.90
49765;DHT22;35657;51.204;-4.130;2023-03-31T13:26:51;10.70;99.90
49765;DHT22;35657;51.204;-4.130;2023-03-31T13:29:21;10.70;99.90
49765;DHT22;35657;51.204;-4.130;2023-03-31T13:34:50;10.60;99.90
49765;DHT22;35657;51.204;-4.130;2023-03-31T13:42:52;10.70;99.90
49765;DHT22;35657;51.204;-4.130;2023-03-31T13:59:55;10.70;99.90
49765;DHT22;35657;51.204;-4.130;2023-03-31T14:05:46;10.70;99.90
49765;DHT22;35657;51.204;-4.130;2023-03-31T14:08:18;10.70;99.90
49765;DHT22;35657;51.204;-4.130;2023-03-31T14:10:48;10.60;99.90
49765;DHT22;35657;51.204;-4.130;2023-03-31T14:13:16;10.60;99.90
49765;DHT22;35657;51.204;-4.130;2023-03-31T14:15:57;10.60;99.90
49765;DHT22;35657;51.204;-4.130;2023-03-31T14:18:37;10.60;99.90
49765;DHT22;35657;51.204;-4.130;2023-03-31T14:21:23;10.60;99.90
49765;DHT22;35657;51.204;-4.130;2023-03-31T14:29:30;10.60;99.90
49765;DHT22;35657;51.204;-4.130;2023-03-31T14:35:31;10.60;99.90
49765;DHT22;35657;51.204;-4.130;2023-03-31T14:38:00;10.60;99.90
49765;DHT22;35657;51.204;-4.130;2023-03-31T14:40:27;10.60;99.90
49765;DHT22;35657;51.204;-4.130;2023-03-31T14:42:53;10.60;99.90
49765;DHT22;35657;51.204;-4.130;2023-03-31T14:45:22;10.60;99.90
49765;DHT22;35657;51.204;-4.130;2023-03-31T14:48:11;10.60;99.90
49765;DHT22;35657;51.204;-4.130;2023-03-31T14:50:42;10.60;99.90
49765;DHT22;35657;51.204;-4.130;2023-03-31T14:53:16;10.70;99.90
49765;DHT22;35657;51.204;-4.130;2023-03-31T14:55:44;10.60;99.90
49765;DHT22;35657;51.204;-4.130;2023-03-31T14:58:13;10.70;99.90
49765;DHT22;35657;51.204;-4.130;2023-03-31T15:00:41;10.70;99.90
49765;DHT22;35657;51.204;-4.130;2023-03-31T15:03:08;10.70;99.90
49765;DHT22;35657;51.204;-4.130;2023-03-31T15:05:40;10.70;99.90
49765;DHT22;35657;51.204;-4.130;2023-03-31T15:08:15;10.70;99.90
49765;DHT22;35657;51.204;-4.130;2023-03-31T15:10:43;10.70;99.90
49765;DHT22;35657;51.204;-4.130;2023-03-31T15:13:29;10.70;99.90
49765;DHT22;35657;51.204;-4.130;2023-03-31T15:15:57;10.80;99.90
49765;DHT22;35657;51.204;-4.130;2023-03-31T15:18:25;10.70;99.90
49765;DHT22;35657;51.204;-4.130;2023-03-31T15:20:51;10.70;99.90
49765;DHT22;35657;51.204;-4.130;2023-03-31T15:23:25;10.60;99.90
49765;DHT22;35657;51.204;-4.130;2023-03-31T15:25:58;10.70;99.90
49765;DHT22;35657;51.204;-4.130;2023-03-31T15:28:28;10.80;99.90
49765;DHT22;35657;51.204;-4.130;2023-03-31T15:30:56;10.80;99.90
49765;DHT22;35657;51.204;-4.130;2023-03-31T15:33:33;10.90;99.90
49765;DHT22;35657;51.204;-4.130;2023-03-31T15:36:01;10.80;99.90
49765;DHT22;35657;51.204;-4.130;2023-03-31T15:38:28;10.80;99.90
49765;DHT22;35657;51.204;-4.130;2023-03-31T15:40:57;10.70;99.90
49765;DHT22;35657;51.204;-4.130;2023-03-31T15:43:28;10.70;99.90
49765;DHT22;35657;51.204;-4.130;2023-03-31T15:45:59;10.60;99.90
49765;DHT22;35657;51.204;-4.130;2023-03-31T15:48:33;10.60;99.90
49765;DHT22;35657;51.204;-4.130;2023-03-31T15:51:34;10.60;99.90
49765;DHT22;35657;51.204;-4.130;2023-03-31T15:54:00;10.60;99.90
49765;DHT22;35657;51.204;-4.130;2023-03-31T15:56:34;10.60;99.90
49765;DHT22;35657;51.204;-4.130;2023-03-31T15:59:02;10.60;99.90
49765;DHT22;35657;51.204;-4.130;2023-03-31T16:01:40;10.60;99.90
49765;DHT22;35657;51.204;-4.130;2023-03-31T16:04:09;10.60;99.90
49765;DHT22;35657;51.204;-4.130;2023-03-31T16:14:24;10.60;99.90
49765;DHT22;35657;51.204;-4.130;2023-03-31T16:16:56;10.60;99.90
49765;DHT22;35657;51.204;-4.130;2023-03-31T16:19:26;10.60;99.90
49765;DHT22;35657;51.204;-4.130;2023-03-31T16:21:54;10.60;99.90
49765;DHT22;35657;51.204;-4.130;2023-03-31T16:24:31;10.60;99.90
49765;DHT22;35657;51.204;-4.130;2023-03-31T16:26:59;10.60;99.90
49765;DHT22;35657;51.204;-4.130;2023-03-31T16:29:25;10.60;99.90
49765;DHT22;35657;51.204;-4.130;2023-03-31T16:32:12;10.60;99.90
49765;DHT22;35657;51.204;-4.130;2023-03-31T16:34:58;10.60;99.90
49765;DHT22;35657;51.204;-4.130;2023-03-31T16:37:25;10.60;99.90
49765;DHT22;35657;51.204;-4.130;2023-03-31T16:39:51;10.60;99.90
49765;DHT22;35657;51.204;-4.130;2023-03-31T16:42:18;10.60;99.90
49765;DHT22;35657;51.204;-4.130;2023-03-31T16:44:44;10.60;99.90
49765;DHT22;35657;51.204;-4.130;2023-03-31T16:47:13;10.60;99.90
49765;DHT22;35657;51.204;-4.130;2023-03-31T16:49:39;10.60;99.90
49765;DHT22;35657;51.204;-4.130;2023-03-31T16:52:05;10.60;99.90
49765;DHT22;35657;51.204;-4.130;2023-03-31T16:54:33;10.60;99.90
49765;DHT22;35657;51.204;-4.130;2023-03-31T16:56:59;10.60;99.90
49765;DHT22;35657;51.204;-4.130;2023-03-31T16:59:25;10.70;99.90
49765;DHT22;35657;51.204;-4.130;2023-03-31T17:01:51;10.70;99.90
49765;DHT22;35657;51.204;-4.130;2023-03-31T17:04:17;10.70;99.90
49765;DHT22;35657;51.204;-4.130;2023-03-31T17:06:44;10.70;99.90
49765;DHT22;35657;51.204;-4.130;2023-03-31T17:09:10;10.70;99.90
49765;DHT22;35657;51.204;-4.130;2023-03-31T17:11:35;10.80;99.90
49765;DHT22;35657;51.204;-4.130;2023-03-31T17:14:01;10.80;99.90
49765;DHT22;35657;51.204;-4.130;2023-03-31T17:16:30;10.80;99.90
49765;DHT22;35657;51.204;-4.130;2023-03-31T17:18:56;10.70;99.90
49765;DHT22;35657;51.204;-4.130;2023-03-31T17:21:22;10.70;99.90
49765;DHT22;35657;51.204;-4.130;2023-03-31T17:23:48;10.70;99.90
49765;DHT22;35657;51.204;-4.130;2023-03-31T17:26:15;10.70;99.90
49765;DHT22;35657;51.204;-4.130;2023-03-31T17:28:41;10.60;99.90
49765;DHT22;35657;51.204;-4.130;2023-03-31T17:31:17;10.60;99.90
49765;DHT22;35657;51.204;-4.130;2023-03-31T17:33:43;10.60;99.90
49765;DHT22;35657;51.204;-4.130;2023-03-31T17:36:10;10.60;99.90
49765;DHT22;35657;51.204;-4.130;2023-03-31T17:38:36;10.60;99.90
49765;DHT22;35657;51.204;-4.130;2023-03-31T17:41:08;10.60;99.90
49765;DHT22;35657;51.204;-4.130;2023-03-31T17:43:34;10.70;99.90
49765;DHT22;35657;51.204;-4.130;2023-03-31T17:46:09;10.70;99.90
49765;DHT22;35657;51.204;-4.130;2023-03-31T17:48:35;10.70;99.90
49765;DHT22;35657;51.204;-4.130;2023-03-31T17:51:13;10.70;99.90
49765;DHT22;35657;51.204;-4.130;2023-03-31T17:53:41;10.70;99.90
49765;DHT22;35657;51.204;-4.130;2023-03-31T17:56:07;10.70;99.90
49765;DHT22;35657;51.204;-4.130;2023-03-31T17:58:32;10.70;99.90
49765;DHT22;35657;51.204;-4.130;2023-03-31T18:00:58;10.70;99.90
49765;DHT22;35657;51.204;-4.130;2023-03-31T18:03:27;10.70;99.90
49765;DHT22;35657;51.204;-4.130;2023-03-31T18:05:52;10.60;99.90
49765;DHT22;35657;51.204;-4.130;2023-03-31T18:08:18;10.60;99.90
49765;DHT22;35657;51.204;-4.130;2023-03-31T18:10:44;10.60;99.90
49765;DHT22;35657;51.204;-4.130;2023-03-31T18:13:10;10.60;99.90
49765;DHT22;35657;51.204;-4.130;2023-03-31T18:15:36;10.60;99.90
49765;DHT22;35657;51.204;-4.130;2023-03-31T18:18:02;10.60;99.90
49765;DHT22;35657;51.204;-4.130;2023-03-31T18:20:28;10.60;99.90
49765;DHT22;35657;51.204;-4.130;2023-03-31T18:22:54;10.60;99.90
49765;DHT22;35657;51.204;-4.130;2023-03-31T18:25:20;10.60;99.90
49765;DHT22;35657;51.204;-4.130;2023-03-31T18:27:46;10.60;99.90
49765;DHT22;35657;51.204;-4.130;2023-03-31T18:30:13;10.70;99.90
49765;DHT22;35657;51.204;-4.130;2023-03-31T18:32:39;10.70;99.90
49765;DHT22;35657;51.204;-4.130;2023-03-31T18:35:05;10.70;99.90
49765;DHT22;35657;51.204;-4.130;2023-03-31T18:37:31;10.80;99.90
49765;DHT22;35657;51.204;-4.130;2023-03-31T18:39:58;10.80;99.90